Time;durP1;ratioP1;P1;durP2;ratioP2;P2;SDS_P1;SDS_P2;PMS_P1;PMS_P2;Temp;Humidity;BMP_temperature;BMP_pressure;BME280_temperature;BME280_humidity;BME280_pressure;Samples;Min_cycle;Max_cycle;Signal;HPM_P1;HPM_P2
2022/11/23 00:00:18;;;;;;;5.00;2.40;;;4.70;99.90;;;;;;6209846;23;20439;-84
2022/11/23 00:02:45;;;;;;;4.37;2.60;;;4.70;99.90;;;;;;6209022;23;20481;-81
2022/11/23 00:05:14;;;;;;;3.37;2.60;;;4.60;99.90;;;;;;6210884;23;20570;-82
2022/11/23 00:07:41;;;;;;;2.73;2.40;;;4.60;99.90;;;;;;6209422;23;20414;-84
2022/11/23 00:10:10;;;;;;;5.83;2.73;;;4.70;99.90;;;;;;6208739;23;20863;-83
2022/11/23 00:12:38;;;;;;;2.47;2.27;;;4.70;99.90;;;;;;6209084;23;20913;-84
2022/11/23 00:15:10;;;;;;;3.33;2.70;;;4.70;99.90;;;;;;6209001;23;20992;-84
2022/11/23 00:17:38;;;;;;;4.70;2.17;;;4.70;99.90;;;;;;6209403;23;20452;-83
2022/11/23 00:20:05;;;;;;;4.77;3.97;;;4.70;99.90;;;;;;6209152;23;20410;-84
2022/11/23 00:22:32;;;;;;;4.90;2.40;;;4.70;99.90;;;;;;6208791;23;20408;-84
2022/11/23 00:24:59;;;;;;;4.93;2.23;;;4.60;99.90;;;;;;6209323;23;20735;-83
2022/11/23 00:27:26;;;;;;;10.30;2.43;;;4.70;99.90;;;;;;6209399;23;20446;-84
2022/11/23 00:29:53;;;;;;;6.30;2.20;;;4.90;99.90;;;;;;6210086;23;20841;-85
2022/11/23 00:32:21;;;;;;;2.83;2.63;;;4.80;99.90;;;;;;6210691;23;20530;-83
2022/11/23 00:34:48;;;;;;;7.00;2.90;;;4.70;99.90;;;;;;6210494;23;20490;-85
2022/11/23 00:37:15;;;;;;;2.73;2.20;;;4.90;99.90;;;;;;6210226;23;20537;-83
2022/11/23 00:39:42;;;;;;;4.23;2.30;;;4.90;99.90;;;;;;6209926;23;20431;-83
2022/11/23 00:42:09;;;;;;;2.93;2.30;;;4.80;99.90;;;;;;6210179;23;20439;-83
2022/11/23 00:44:36;;;;;;;2.97;2.10;;;4.80;99.90;;;;;;6210349;23;20443;-83
2022/11/23 00:47:03;;;;;;;7.60;2.53;;;5.00;99.90;;;;;;6210860;23;20487;-83
2022/11/23 00:49:31;;;;;;;5.50;2.10;;;5.00;99.90;;;;;;6210359;23;20521;-82
2022/11/23 00:51:58;;;;;;;2.30;1.70;;;4.90;99.90;;;;;;6210184;23;20928;-81
2022/11/23 00:54:27;;;;;;;3.50;2.50;;;5.00;99.90;;;;;;6210464;23;20509;-82
2022/11/23 00:56:56;;;;;;;7.10;2.40;;;4.90;99.90;;;;;;6210281;23;20922;-83
2022/11/23 00:59:23;;;;;;;3.67;2.33;;;4.80;99.90;;;;;;6210447;23;20412;-82
2022/11/23 01:01:51;;;;;;;3.53;2.43;;;4.90;99.90;;;;;;6209426;23;20426;-83
2022/11/23 01:04:19;;;;;;;2.43;1.90;;;4.80;99.90;;;;;;6209808;23;20852;-85
2022/11/23 01:06:57;;;;;;;2.83;2.13;;;4.70;99.90;;;;;;6209849;23;20418;-84
2022/11/23 01:09:26;;;;;;;4.03;2.73;;;4.70;99.90;;;;;;6209258;23;20454;-84
2022/11/23 01:11:54;;;;;;;5.00;2.43;;;4.80;99.90;;;;;;6209729;23;20740;-83
2022/11/23 01:14:25;;;;;;;4.17;2.80;;;5.00;99.90;;;;;;6209988;23;20460;-83
2022/11/23 01:16:52;;;;;;;11.33;2.30;;;4.60;99.90;;;;;;6210704;23;20403;-84
2022/11/23 01:19:21;;;;;;;3.43;2.30;;;4.60;99.90;;;;;;6210788;23;20408;-84
2022/11/23 01:22:03;;;;;;;2.37;2.17;;;4.60;99.90;;;;;;6209410;23;20415;-84
2022/11/23 01:24:30;;;;;;;4.40;2.23;;;4.60;99.90;;;;;;6210152;23;20461;-84
2022/11/23 01:26:58;;;;;;;4.00;2.23;;;4.60;99.90;;;;;;6211113;23;20913;-83
2022/11/23 01:29:30;;;;;;;2.53;2.07;;;4.80;99.90;;;;;;6213263;23;20827;-81
2022/11/23 01:31:58;;;;;;;4.80;2.20;;;4.90;99.90;;;;;;6213097;23;20442;-83
2022/11/23 01:34:27;;;;;;;1.93;1.80;;;4.90;99.90;;;;;;6211221;23;20434;-83
2022/11/23 01:39:39;;;;;;;7.83;3.00;;;4.90;99.90;;;;;;6211599;23;20489;-84
2022/11/23 01:44:50;;;;;;;4.63;2.20;;;4.90;99.90;;;;;;6210270;23;20516;-82
2022/11/23 01:47:18;;;;;;;6.33;2.13;;;4.90;99.90;;;;;;6210761;23;20430;-83
2022/11/23 01:49:50;;;;;;;4.93;1.87;;;4.90;99.90;;;;;;6210398;23;20526;-81
2022/11/23 01:52:23;;;;;;;4.10;1.93;;;4.80;99.90;;;;;;6209914;23;20921;-83
2022/11/23 01:54:53;;;;;;;2.40;2.20;;;4.70;99.90;;;;;;6209391;23;20414;-85
2022/11/23 01:57:26;;;;;;;5.03;2.30;;;4.70;99.90;;;;;;6209644;23;20816;-83
2022/11/23 01:59:54;;;;;;;3.10;2.23;;;4.70;99.90;;;;;;6210048;23;20415;-82
2022/11/23 02:02:24;;;;;;;5.30;2.07;;;4.60;99.90;;;;;;6209226;23;20747;-82
2022/11/23 02:04:53;;;;;;;2.10;1.70;;;4.70;99.90;;;;;;6209084;23;20500;-81
2022/11/23 02:07:25;;;;;;;2.20;1.87;;;4.80;99.90;;;;;;6209859;23;20890;-82
2022/11/23 02:09:54;;;;;;;2.30;2.00;;;4.80;99.90;;;;;;6208923;23;20518;-83
2022/11/23 02:12:21;;;;;;;4.07;2.10;;;4.80;99.90;;;;;;6209763;23;20426;-83
2022/11/23 02:14:49;;;;;;;2.10;1.90;;;4.80;99.90;;;;;;6209585;23;20417;-82
2022/11/23 02:17:17;;;;;;;1.90;1.57;;;4.90;99.90;;;;;;6210090;23;20421;-82
2022/11/23 02:19:52;;;;;;;5.00;1.70;;;4.90;99.90;;;;;;6211442;23;20439;-82
2022/11/23 02:22:51;;;;;;;3.17;2.50;;;4.90;99.90;;;;;;6210215;23;20417;-80
2022/11/23 02:25:31;;;;;;;2.03;1.40;;;4.90;99.90;;;;;;6210204;23;20748;-81
2022/11/23 02:28:03;;;;;;;4.23;1.47;;;4.70;99.90;;;;;;6209867;23;20406;-82
2022/11/23 02:30:37;;;;;;;3.80;2.00;;;4.50;99.90;;;;;;6210057;23;20501;-83
2022/11/23 02:33:06;;;;;;;5.13;2.20;;;4.50;99.90;;;;;;6209917;23;20426;-84
2022/11/23 02:35:38;;;;;;;3.70;2.20;;;4.50;99.90;;;;;;6209415;23;20407;-83
2022/11/23 02:38:10;;;;;;;4.80;2.10;;;4.40;99.90;;;;;;6209455;23;20451;-84
2022/11/23 02:40:40;;;;;;;3.60;2.10;;;4.40;99.90;;;;;;6209422;23;20407;-77
2022/11/23 02:43:10;;;;;;;3.70;2.47;;;4.40;99.90;;;;;;6209663;23;20913;-82
2022/11/23 02:45:43;;;;;;;2.30;1.90;;;4.20;99.90;;;;;;6209471;23;20419;-83
2022/11/23 02:48:12;;;;;;;2.53;2.17;;;4.20;99.90;;;;;;6209567;23;20930;-82
2022/11/23 02:50:44;;;;;;;2.90;1.80;;;4.20;99.90;;;;;;6209477;23;20439;-81
2022/11/23 02:53:17;;;;;;;2.37;1.70;;;4.20;99.90;;;;;;6209364;23;20415;-82
2022/11/23 02:55:47;;;;;;;2.10;1.90;;;4.30;99.90;;;;;;6209191;23;20744;-81
2022/11/23 02:58:16;;;;;;;3.33;1.47;;;4.10;99.90;;;;;;6211532;23;20991;-80
2022/11/23 03:00:44;;;;;;;2.00;1.80;;;4.20;99.90;;;;;;6218448;23;20411;-80
2022/11/23 03:03:28;;;;;;;2.93;1.83;;;4.30;99.90;;;;;;6223687;23;21176;-80
2022/11/23 03:05:57;;;;;;;2.20;1.90;;;4.30;99.90;;;;;;6223329;23;20413;-80
2022/11/23 03:08:24;;;;;;;2.20;1.60;;;4.30;99.90;;;;;;6220724;23;20419;-79
2022/11/23 03:10:52;;;;;;;5.37;1.80;;;4.30;99.90;;;;;;6213382;23;20447;-79
2022/11/23 03:13:31;;;;;;;2.43;1.90;;;4.20;99.90;;;;;;6209382;23;20802;-76
2022/11/23 03:15:59;;;;;;;3.77;2.07;;;4.20;99.90;;;;;;6210080;23;20947;-75
2022/11/23 03:18:29;;;;;;;3.53;2.00;;;4.10;99.90;;;;;;6212130;23;20761;-80
2022/11/23 03:21:03;;;;;;;2.23;1.97;;;4.00;99.90;;;;;;6210488;23;20512;-82
2022/11/23 03:23:31;;;;;;;3.07;2.23;;;4.00;99.90;;;;;;6210953;23;20422;-81
2022/11/23 03:26:03;;;;;;;5.97;2.07;;;3.90;99.90;;;;;;6211368;23;20415;-82
2022/11/23 03:28:32;;;;;;;2.10;1.90;;;3.80;99.90;;;;;;6211755;23;20434;-82
2022/11/23 03:31:03;;;;;;;2.33;1.73;;;3.80;99.90;;;;;;6211631;23;20445;-81
2022/11/23 03:36:48;;;;;;;2.37;1.60;;;3.80;99.90;;;;;;6202495;23;20401;-82
2022/11/23 03:39:15;;;;;;;2.37;2.17;;;3.70;99.90;;;;;;6211706;23;20415;-84
2022/11/23 03:41:42;;;;;;;4.00;2.13;;;3.60;99.90;;;;;;6212110;23;20407;-86
2022/11/23 03:44:19;;;;;;;3.37;1.87;;;3.80;99.90;;;;;;6212932;23;20870;-86
2022/11/23 03:46:46;;;;;;;1.87;1.77;;;3.60;99.90;;;;;;6220490;23;20787;-85
2022/11/23 03:49:13;;;;;;;2.37;1.67;;;3.50;99.90;;;;;;6219093;23;20415;-84
2022/11/23 03:51:40;;;;;;;3.40;1.90;;;3.50;99.90;;;;;;6214669;23;20846;-86
2022/11/23 03:54:07;;;;;;;2.03;1.67;;;3.60;99.90;;;;;;6212760;23;20415;-85
2022/11/23 03:56:34;;;;;;;4.67;2.20;;;3.60;99.90;;;;;;6211278;23;20417;-87
2022/11/23 03:59:01;;;;;;;4.07;2.23;;;3.50;99.90;;;;;;6210696;23;20414;-86
2022/11/23 04:01:32;;;;;;;5.43;2.93;;;3.40;99.90;;;;;;6211297;23;20415;-86
2022/11/23 04:03:59;;;;;;;4.03;1.50;;;3.40;99.90;;;;;;6211424;23;20822;-85
2022/11/23 04:06:26;;;;;;;2.53;1.80;;;3.40;99.90;;;;;;6211338;23;20453;-86
2022/11/23 04:08:53;;;;;;;3.33;2.37;;;3.40;99.90;;;;;;6212244;23;20421;-85
2022/11/23 04:11:24;;;;;;;2.70;2.10;;;3.40;99.90;;;;;;6211769;23;20501;-86
2022/11/23 04:13:51;;;;;;;2.50;2.30;;;3.60;99.90;;;;;;6211041;23;20407;-86
2022/11/23 04:16:18;;;;;;;2.80;2.10;;;3.50;99.90;;;;;;6210927;23;20951;-85
2022/11/23 04:18:46;;;;;;;3.30;2.00;;;3.50;99.90;;;;;;6211582;23;20442;-85
2022/11/23 04:21:13;;;;;;;2.10;1.90;;;3.50;99.90;;;;;;6211469;23;20419;-86
2022/11/23 04:23:40;;;;;;;3.20;2.13;;;3.50;99.90;;;;;;6212476;23;20446;-84
2022/11/23 04:26:07;;;;;;;6.30;2.70;;;3.60;99.90;;;;;;6212714;23;20434;-85
2022/11/23 04:37:03;;;;;;;4.57;2.20;;;3.80;99.90;;;;;;6187929;22;20464;-83
2022/11/23 04:39:29;;;;;;;2.50;1.47;;;3.60;99.90;;;;;;6184247;23;20431;-85
2022/11/23 04:41:56;;;;;;;2.57;2.37;;;3.70;99.90;;;;;;6182310;23;20490;-87
2022/11/23 04:44:23;;;;;;;3.53;2.30;;;3.70;99.90;;;;;;6180525;23;20411;-85
2022/11/23 04:49:31;;;;;;;8.97;3.20;;;3.60;99.90;;;;;;6182549;23;20412;-85
2022/11/23 04:51:58;;;;;;;2.60;2.20;;;3.70;99.90;;;;;;6187331;23;20443;-83
2022/11/23 04:54:32;;;;;;;2.20;2.00;;;3.80;99.90;;;;;;6190265;23;20412;-83
2022/11/23 04:57:00;;;;;;;3.20;1.80;;;3.70;99.90;;;;;;6189145;23;20449;-84
2022/11/23 04:59:27;;;;;;;3.03;2.30;;;3.80;99.90;;;;;;6186449;23;20482;-85
2022/11/23 05:02:01;;;;;;;2.73;2.00;;;3.80;99.90;;;;;;6189002;23;20467;-86
2022/11/23 05:04:28;;;;;;;2.97;2.50;;;3.60;99.90;;;;;;6185881;23;20412;-88
2022/11/23 05:06:55;;;;;;;4.17;2.27;;;3.60;99.90;;;;;;6184954;23;20885;-87
2022/11/23 05:09:21;;;;;;;2.97;1.97;;;3.60;99.90;;;;;;6181880;23;20483;-86
2022/11/23 05:11:57;;;;;;;7.33;1.97;;;3.50;99.90;;;;;;6186602;23;20523;-85
2022/11/23 05:14:24;;;;;;;2.53;2.00;;;3.50;99.90;;;;;;6186046;23;20420;-87
2022/11/23 05:16:51;;;;;;;2.23;1.73;;;3.60;99.90;;;;;;6186148;23;20423;-86
2022/11/23 05:19:18;;;;;;;3.63;2.20;;;3.60;99.90;;;;;;6185249;23;20440;-87
2022/11/23 05:21:45;;;;;;;4.67;2.13;;;3.60;99.90;;;;;;6185322;23;20547;-86
2022/11/23 05:24:14;;;;;;;3.00;2.13;;;3.60;99.90;;;;;;6186909;23;20416;-85
2022/11/23 05:26:41;;;;;;;2.00;1.80;;;3.60;99.90;;;;;;6186080;23;20412;-78
2022/11/23 05:29:10;;;;;;;2.13;1.93;;;4.10;99.90;;;;;;6186873;23;21184;-87
2022/11/23 05:31:37;;;;;;;3.97;1.97;;;3.70;99.90;;;;;;6186594;23;20447;-88
2022/11/23 05:34:06;;;;;;;3.80;2.40;;;3.70;99.90;;;;;;6187149;23;20403;-88
2022/11/23 05:36:33;;;;;;;2.30;1.83;;;3.90;99.90;;;;;;6188470;23;20454;-88
2022/11/23 05:39:00;;;;;;;3.77;2.83;;;4.00;99.90;;;;;;6188910;23;20968;-87
2022/11/23 05:41:27;;;;;;;5.27;2.20;;;4.00;99.90;;;;;;6187521;23;20405;-82
2022/11/23 05:43:54;;;;;;;2.27;2.10;;;4.10;99.90;;;;;;6187736;23;20412;-89
2022/11/23 05:46:26;;;;;;;3.83;2.10;;;4.20;99.90;;;;;;6185938;23;20416;-88
2022/11/23 05:48:53;;;;;;;3.43;2.20;;;4.00;99.90;;;;;;6186936;23;20431;-88
2022/11/23 05:51:20;;;;;;;5.33;2.70;;;4.90;99.90;;;;;;6187285;23;20444;-79
2022/11/23 05:53:47;;;;;;;6.00;2.37;;;4.00;99.90;;;;;;6183439;23;20698;-84
2022/11/23 05:56:14;;;;;;;8.83;2.20;;;3.90;99.90;;;;;;6185065;23;20404;-83
2022/11/23 05:58:41;;;;;;;4.90;2.73;;;4.00;99.90;;;;;;6186665;23;20412;-84
2022/11/23 06:01:08;;;;;;;2.33;2.13;;;4.10;99.90;;;;;;6186935;23;20885;-85
2022/11/23 06:03:40;;;;;;;4.03;2.57;;;4.10;99.90;;;;;;6186594;23;20428;-87
2022/11/23 06:06:08;;;;;;;3.30;2.67;;;4.10;99.90;;;;;;6184243;23;20420;-86
2022/11/23 06:08:39;;;;;;;6.07;2.67;;;4.00;99.90;;;;;;6182032;23;20422;-88
2022/11/23 06:11:15;;;;;;;3.60;1.80;;;4.10;99.90;;;;;;6191998;23;20454;-85
2022/11/23 06:13:43;;;;;;;6.90;3.13;;;4.20;99.90;;;;;;6198009;23;20416;-86
2022/11/23 06:16:10;;;;;;;2.50;2.03;;;4.20;99.90;;;;;;6191827;23;20708;-86
2022/11/23 06:18:38;;;;;;;5.40;2.50;;;4.20;99.90;;;;;;6185092;23;20420;-86
2022/11/23 06:21:05;;;;;;;2.97;2.17;;;4.10;99.90;;;;;;6181077;23;20727;-85
2022/11/23 06:23:32;;;;;;;6.60;2.40;;;3.90;99.90;;;;;;6180100;23;20701;-82
2022/11/23 06:26:02;;;;;;;3.43;2.67;;;3.80;99.90;;;;;;6180759;23;20482;-87
2022/11/23 06:28:31;;;;;;;5.90;2.43;;;3.70;99.90;;;;;;6179902;23;20475;-86
2022/11/23 06:31:03;;;;;;;2.33;2.10;;;3.70;99.90;;;;;;6179615;23;20451;-85
2022/11/23 06:33:29;;;;;;;4.77;2.80;;;3.80;99.90;;;;;;6178991;23;20435;-87
2022/11/23 06:35:59;;;;;;;7.20;2.63;;;3.90;99.90;;;;;;6179813;23;20513;-85
2022/11/23 06:38:27;;;;;;;3.47;2.40;;;3.90;99.90;;;;;;6179876;23;20878;-84
2022/11/23 06:41:09;;;;;;;5.43;2.90;;;4.20;99.90;;;;;;6179112;23;20412;-86
2022/11/23 06:43:36;;;;;;;3.10;2.50;;;3.90;99.90;;;;;;6179502;23;20399;-87
2022/11/23 06:46:05;;;;;;;4.27;2.70;;;4.00;99.90;;;;;;6178835;23;20448;-76
2022/11/23 06:48:32;;;;;;;3.00;2.43;;;4.00;99.90;;;;;;6179661;23;20407;-75
2022/11/23 06:51:01;;;;;;;5.57;2.83;;;3.80;99.90;;;;;;6177959;23;20471;-78
2022/11/23 06:53:28;;;;;;;5.47;2.90;;;4.20;99.90;;;;;;6179503;23;20491;-77
2022/11/23 06:58:40;;;;;;;4.47;4.00;;;4.10;99.90;;;;;;6179651;23;20443;-87
2022/11/23 07:01:08;;;;;;;4.93;2.80;;;4.10;99.90;;;;;;6181801;23;20473;-88
2022/11/23 07:03:36;;;;;;;8.57;3.03;;;3.90;99.90;;;;;;6181247;23;20794;-85
2022/11/23 07:06:07;;;;;;;3.87;2.63;;;4.20;99.90;;;;;;6181099;23;20471;-84
2022/11/23 07:08:35;;;;;;;3.83;2.73;;;4.20;99.90;;;;;;6181097;23;20392;-84
2022/11/23 07:11:03;;;;;;;6.00;2.93;;;4.30;99.90;;;;;;6180866;23;20458;-78
2022/11/23 07:13:30;;;;;;;4.43;2.30;;;4.30;99.90;;;;;;6182015;23;20431;-85
2022/11/23 07:15:58;;;;;;;3.53;2.20;;;4.30;99.90;;;;;;6178649;23;20416;-86
2022/11/23 07:18:26;;;;;;;3.00;2.70;;;4.30;99.90;;;;;;6181079;23;20589;-86
2022/11/23 07:20:53;;;;;;;5.37;3.60;;;4.20;99.90;;;;;;6181036;23;20487;-86
2022/11/23 07:23:26;;;;;;;4.73;3.27;;;4.40;99.90;;;;;;6183505;23;20803;-84
2022/11/23 07:25:53;;;;;;;5.90;3.20;;;4.30;99.90;;;;;;6183708;23;20807;-86
2022/11/23 07:28:20;;;;;;;3.20;2.50;;;4.40;99.90;;;;;;6184513;23;20952;-86
2022/11/23 07:30:51;;;;;;;6.63;2.90;;;4.40;99.90;;;;;;6183042;23;20447;-87
2022/11/23 07:33:18;;;;;;;4.80;3.33;;;4.50;99.90;;;;;;6184224;23;20495;-86
2022/11/23 07:35:46;;;;;;;5.33;3.07;;;4.50;99.90;;;;;;6183902;23;20412;-86
2022/11/23 07:38:13;;;;;;;4.17;2.20;;;4.40;99.90;;;;;;6183648;23;20487;-85
2022/11/23 07:40:41;;;;;;;3.43;2.60;;;4.50;99.90;;;;;;6184649;23;20408;-87
2022/11/23 07:43:08;;;;;;;4.33;2.90;;;4.40;99.90;;;;;;6183554;23;20809;-87
2022/11/23 07:45:37;;;;;;;4.60;2.23;;;4.40;99.90;;;;;;6186738;23;20419;-87
2022/11/23 07:48:07;;;;;;;3.70;2.70;;;4.20;99.90;;;;;;6185199;23;20889;-88
2022/11/23 07:50:35;;;;;;;6.07;2.50;;;4.20;99.90;;;;;;6183568;23;20450;-85
2022/11/23 07:53:03;;;;;;;3.77;2.90;;;4.20;99.90;;;;;;6180270;23;20416;-80
2022/11/23 07:55:58;;;;;;;4.93;3.43;;;4.20;99.90;;;;;;6184721;23;20963;-83
2022/11/23 07:58:44;;;;;;;5.63;2.97;;;4.80;99.90;;;;;;6197641;23;20451;-82
2022/11/23 08:03:58;;;;;;;3.63;3.10;;;4.50;99.90;;;;;;6182651;23;20411;-85
2022/11/23 08:06:24;;;;;;;7.40;2.80;;;4.70;99.90;;;;;;6182019;23;20940;-84
2022/11/23 08:08:54;;;;;;;10.13;2.90;;;5.00;99.90;;;;;;6181673;23;20937;-84
2022/11/23 08:11:22;;;;;;;8.93;2.80;;;5.00;99.90;;;;;;6180452;23;20443;-76
2022/11/23 08:13:49;;;;;;;4.80;3.00;;;5.20;99.90;;;;;;6179939;23;20515;-77
2022/11/23 08:16:16;;;;;;;4.37;3.20;;;5.30;99.90;;;;;;6179634;23;20968;-78
2022/11/23 08:18:43;;;;;;;3.60;3.03;;;5.40;99.90;;;;;;6179015;23;20499;-76
2022/11/23 08:21:11;;;;;;;5.87;2.40;;;5.50;99.90;;;;;;6180572;23;20508;-77
2022/11/23 08:23:37;;;;;;;5.33;2.50;;;5.50;99.90;;;;;;6179645;23;20419;-76
2022/11/23 08:26:05;;;;;;;2.97;2.33;;;5.60;99.90;;;;;;6179163;23;20454;-78
2022/11/23 08:28:34;;;;;;;8.17;3.10;;;5.60;99.90;;;;;;6179500;23;20482;-76
2022/11/23 08:31:06;;;;;;;5.40;3.20;;;5.20;99.90;;;;;;6187914;23;20526;-77
2022/11/23 08:33:33;;;;;;;10.33;2.40;;;5.30;99.90;;;;;;6180484;23;20435;-77
2022/11/23 08:36:04;;;;;;;3.97;2.57;;;5.60;99.90;;;;;;6180466;23;20420;-80
2022/11/23 08:38:32;;;;;;;5.30;2.90;;;5.70;99.90;;;;;;6185522;23;20973;-76
2022/11/23 08:40:59;;;;;;;3.27;1.90;;;6.10;99.90;;;;;;6179860;23;20439;-76
2022/11/23 08:43:26;;;;;;;2.90;2.70;;;6.30;99.90;;;;;;6179518;23;20414;-75
2022/11/23 08:45:55;;;;;;;2.43;2.20;;;6.20;99.90;;;;;;6179454;23;20979;-75
2022/11/23 08:48:30;;;;;;;4.60;2.40;;;5.70;99.90;;;;;;6180509;23;20389;-86
2022/11/23 08:51:00;;;;;;;6.23;3.37;;;5.50;99.90;;;;;;6178732;23;20885;-76
2022/11/23 08:53:27;;;;;;;3.57;2.63;;;5.80;99.90;;;;;;6179316;23;20913;-75
2022/11/23 08:55:54;;;;;;;3.37;2.17;;;6.00;99.90;;;;;;6178725;23;20408;-73
2022/11/23 08:58:25;;;;;;;2.50;2.30;;;6.20;99.90;;;;;;6178454;23;21074;-74
2022/11/23 09:00:52;;;;;;;3.40;2.50;;;6.30;99.90;;;;;;6178540;23;20396;-73
2022/11/23 09:03:20;;;;;;;2.93;2.63;;;6.50;99.90;;;;;;6178478;23;20512;-74
2022/11/23 09:05:47;;;;;;;6.63;3.73;;;6.70;99.90;;;;;;6179294;23;20463;-74
2022/11/23 09:08:17;;;;;;;3.63;2.43;;;6.90;99.90;;;;;;6178407;23;20946;-73
2022/11/23 09:10:46;;;;;;;5.60;2.10;;;6.50;99.90;;;;;;6178809;23;20428;-74
2022/11/23 09:13:13;;;;;;;4.57;2.97;;;6.40;99.90;;;;;;6178755;23;20479;-75
2022/11/23 09:15:40;;;;;;;5.17;2.43;;;6.20;99.90;;;;;;6178428;23;20435;-75
2022/11/23 09:18:11;;;;;;;4.33;2.33;;;6.20;99.90;;;;;;6178198;23;20420;-78
2022/11/23 09:20:41;;;;;;;3.00;2.57;;;6.40;99.90;;;;;;6178797;23;20799;-75
2022/11/23 09:23:09;;;;;;;2.70;1.80;;;6.70;99.90;;;;;;6177952;23;20439;-73
2022/11/23 09:25:35;;;;;;;7.00;2.07;;;7.00;99.90;;;;;;6177963;23;20934;-75
2022/11/23 09:28:11;;;;;;;2.83;1.80;;;6.90;99.90;;;;;;6178849;23;21107;-75
2022/11/23 09:30:38;;;;;;;3.27;1.70;;;6.90;99.90;;;;;;6178483;23;21064;-76
2022/11/23 09:33:05;;;;;;;1.80;1.20;;;7.00;99.90;;;;;;6178434;23;20452;-75
2022/11/23 09:35:41;;;;;;;1.40;1.30;;;6.90;99.90;;;;;;6177912;23;20438;-73
2022/11/23 09:38:18;;;;;;;4.00;1.93;;;6.70;99.90;;;;;;6177980;23;20522;-74
2022/11/23 09:40:45;;;;;;;1.47;1.37;;;6.70;99.90;;;;;;6178069;23;20435;-74
2022/11/23 09:43:35;;;;;;;9.43;2.50;;;6.50;99.90;;;;;;6178140;23;20413;-74
2022/11/23 09:46:11;;;;;;;6.23;2.90;;;6.60;99.90;;;;;;6178400;23;20474;-75
2022/11/23 09:48:48;;;;;;;4.47;2.77;;;6.80;99.90;;;;;;6177985;23;20403;-76
2022/11/23 09:51:17;;;;;;;3.97;2.10;;;6.80;99.90;;;;;;6177726;23;20388;-74
2022/11/23 09:53:51;;;;;;;3.40;2.53;;;6.70;99.90;;;;;;6178329;23;20416;-75
2022/11/23 09:56:20;;;;;;;3.20;2.50;;;6.70;99.90;;;;;;6178236;23;20959;-75
2022/11/23 09:58:50;;;;;;;2.47;2.27;;;6.70;99.90;;;;;;6178538;23;20466;-75
2022/11/23 10:01:17;;;;;;;2.63;2.30;;;6.60;99.90;;;;;;6178003;23;20947;-76
2022/11/23 10:03:45;;;;;;;4.53;2.57;;;6.50;99.90;;;;;;6178393;23;20414;-74
2022/11/23 10:06:19;;;;;;;3.80;1.77;;;6.40;99.90;;;;;;6177393;23;20993;-74
2022/11/23 10:09:00;;;;;;;2.37;2.00;;;6.70;99.90;;;;;;6178602;23;20854;-80
2022/11/23 10:11:49;;;;;;;2.53;1.80;;;6.70;99.90;;;;;;6178699;23;20396;-85
2022/11/23 10:17:23;;;;;;;5.37;1.97;;;6.70;99.90;;;;;;6177566;23;20412;-75
2022/11/23 10:20:03;;;;;;;2.90;2.23;;;6.80;99.90;;;;;;6177723;23;20623;-74
2022/11/23 10:22:41;;;;;;;4.50;2.00;;;6.90;99.90;;;;;;6177881;23;20384;-74
2022/11/23 10:25:15;;;;;;;4.53;1.63;;;6.80;99.90;;;;;;6178149;23;20480;-73
2022/11/23 10:27:45;;;;;;;3.23;1.70;;;6.90;99.90;;;;;;6177872;23;20451;-73
2022/11/23 10:30:19;;;;;;;4.10;1.50;;;6.90;99.90;;;;;;6178018;23;20673;-81
2022/11/23 10:32:50;;;;;;;5.80;1.83;;;7.10;99.90;;;;;;6177411;23;20431;-74
2022/11/23 10:35:22;;;;;;;1.50;1.40;;;7.10;99.90;;;;;;6180785;23;20392;-75
2022/11/23 10:37:49;;;;;;;2.27;1.43;;;7.10;99.90;;;;;;6177861;23;20456;-79
2022/11/23 10:40:24;;;;;;;8.00;1.90;;;7.00;99.90;;;;;;6181672;23;20403;-79
2022/11/23 10:42:54;;;;;;;2.13;1.53;;;7.10;99.90;;;;;;6180003;23;20455;-80
2022/11/23 10:45:23;;;;;;;3.10;1.47;;;7.20;99.90;;;;;;6179484;23;20479;-82
2022/11/23 10:47:59;;;;;;;2.43;1.10;;;7.30;99.90;;;;;;6179205;23;20489;-75
2022/11/23 10:50:28;;;;;;;2.17;1.40;;;7.30;99.90;;;;;;6179340;23;20471;-75
2022/11/23 10:52:59;;;;;;;1.77;1.13;;;7.40;99.90;;;;;;6179196;23;20444;-75
2022/11/23 10:55:29;;;;;;;3.00;1.40;;;7.60;99.90;;;;;;6179130;23;20466;-74
2022/11/23 10:57:57;;;;;;;2.30;1.43;;;7.80;99.90;;;;;;6179287;23;20408;-75
2022/11/23 11:00:26;;;;;;;4.63;1.73;;;7.90;99.90;;;;;;6179773;23;20408;-75
2022/11/23 11:02:54;;;;;;;2.60;1.10;;;7.70;99.90;;;;;;6179039;23;20434;-75
2022/11/23 11:05:28;;;;;;;8.37;1.40;;;8.10;99.90;;;;;;6179080;23;20454;-74
2022/11/23 11:07:57;;;;;;;7.10;1.50;;;8.40;99.90;;;;;;6178552;23;20798;-74
2022/11/23 11:10:38;;;;;;;2.20;1.30;;;8.40;99.90;;;;;;6178829;23;20482;-74
2022/11/23 11:13:22;;;;;;;3.07;1.63;;;8.50;99.90;;;;;;6178044;23;20502;-75
2022/11/23 11:15:54;;;;;;;4.03;1.90;;;9.50;99.90;;;;;;6178974;23;20866;-75
2022/11/23 11:21:06;;;;;;;3.00;1.50;;;10.70;99.90;;;;;;6178262;23;20419;-73
2022/11/23 11:23:35;;;;;;;4.00;1.40;;;12.40;99.90;;;;;;6178831;23;20387;-71
2022/11/23 11:26:16;;;;;;;3.60;1.50;;;13.50;99.90;;;;;;6177666;23;20503;-71
2022/11/23 11:28:47;;;;;;;3.53;1.50;;;14.40;99.90;;;;;;6176881;23;20392;-71
2022/11/23 11:31:33;;;;;;;2.90;1.63;;;14.70;99.90;;;;;;6177940;23;20472;-72
2022/11/23 11:34:11;;;;;;;1.50;1.40;;;14.70;99.90;;;;;;6178138;23;21181;-72
2022/11/23 11:36:42;;;;;;;3.53;1.47;;;14.70;99.90;;;;;;6177462;23;20435;-72
2022/11/23 11:39:15;;;;;;;4.70;1.40;;;13.80;99.90;;;;;;6177825;23;20427;-72
2022/11/23 11:41:46;;;;;;;3.43;1.10;;;11.40;99.90;;;;;;6177892;23;21004;-73
2022/11/23 11:44:21;;;;;;;3.80;2.00;;;11.60;99.90;;;;;;6177294;23;20495;-72
2022/11/23 11:46:54;;;;;;;2.40;1.77;;;9.90;99.90;;;;;;6176961;23;20399;-72
2022/11/23 11:49:26;;;;;;;2.40;1.30;;;10.00;99.90;;;;;;6177842;23;20658;-72
2022/11/23 11:51:59;;;;;;;1.67;1.57;;;10.60;99.90;;;;;;6177787;23;20933;-72
2022/11/23 11:54:34;;;;;;;1.97;1.13;;;11.10;99.90;;;;;;6178335;23;20428;-72
2022/11/23 11:57:06;;;;;;;1.90;1.40;;;11.50;99.90;;;;;;6178395;23;20388;-72
2022/11/23 11:59:41;;;;;;;1.37;1.00;;;11.70;99.90;;;;;;6177967;23;20447;-72
2022/11/23 12:02:19;;;;;;;3.47;1.83;;;11.20;99.90;;;;;;6178460;23;20423;-73
2022/11/23 12:04:54;;;;;;;2.13;1.20;;;10.90;99.90;;;;;;6177835;23;20453;-72
2022/11/23 12:07:27;;;;;;;2.40;1.43;;;10.50;99.90;;;;;;6179383;23;20479;-73
2022/11/23 12:10:01;;;;;;;6.20;1.30;;;11.10;99.90;;;;;;6181089;23;20458;-83
2022/11/23 12:12:36;;;;;;;2.10;1.57;;;10.70;99.90;;;;;;6181881;23;20486;-85
2022/11/23 12:15:04;;;;;;;1.40;1.30;;;10.00;99.90;;;;;;6180072;23;20759;-79
2022/11/23 12:17:45;;;;;;;3.37;1.37;;;10.80;99.90;;;;;;6179210;23;20456;-85
2022/11/23 12:20:22;;;;;;;3.23;1.10;;;9.60;99.90;;;;;;6179735;23;20454;-81
2022/11/23 12:23:04;;;;;;;3.93;1.20;;;10.00;99.90;;;;;;6185983;23;20404;-82
2022/11/23 12:25:35;;;;;;;2.10;1.23;;;9.60;99.90;;;;;;6179337;23;20454;-80
2022/11/23 12:28:23;;;;;;;6.97;3.60;;;10.30;99.90;;;;;;6178561;23;20412;-77
2022/11/23 12:31:02;;;;;;;7.43;2.57;;;12.10;99.90;;;;;;6178029;23;20956;-78
2022/11/23 12:33:47;;;;;;;2.03;1.53;;;14.20;99.90;;;;;;6178498;23;20877;-73
2022/11/23 12:36:42;;;;;;;2.30;1.60;;;12.40;99.90;;;;;;6176284;23;20420;-74
2022/11/23 12:39:24;;;;;;;2.17;1.30;;;13.30;99.90;;;;;;6169944;23;21201;-75
2022/11/23 12:41:58;;;;;;;1.40;1.20;;;13.60;99.90;;;;;;6177067;23;20659;-73
2022/11/23 12:44:43;;;;;;;3.23;1.53;;;14.40;99.90;;;;;;6177583;23;20392;-73
2022/11/23 12:47:19;;;;;;;2.10;1.50;;;15.00;99.90;;;;;;6178014;23;20743;-74
2022/11/23 12:49:52;;;;;;;38.20;17.63;;;14.10;99.90;;;;;;6179904;23;20807;-73
2022/11/23 12:52:35;;;;;;;6.70;1.80;;;13.70;99.90;;;;;;6176244;23;20446;-71
2022/11/23 12:55:15;;;;;;;8.80;1.60;;;12.50;99.90;;;;;;6177439;23;20419;-72
2022/11/23 12:57:49;;;;;;;7.03;2.67;;;11.60;99.90;;;;;;6177001;23;20396;-77
2022/11/23 13:00:23;;;;;;;36.77;16.87;;;12.00;99.90;;;;;;6182062;23;20425;-76
2022/11/23 13:03:15;;;;;;;2.00;1.43;;;13.10;99.90;;;;;;6181700;23;20392;-78
2022/11/23 13:06:04;;;;;;;4.63;1.50;;;12.00;99.90;;;;;;6180758;23;20901;-74
2022/11/23 13:08:56;;;;;;;2.60;1.37;;;9.90;99.90;;;;;;6178082;23;20451;-75
2022/11/23 13:11:37;;;;;;;1.53;1.30;;;9.10;99.90;;;;;;6174391;23;21005;-75
2022/11/23 13:14:15;;;;;;;1.57;1.20;;;9.10;99.90;;;;;;6177812;23;20485;-74
2022/11/23 13:17:09;;;;;;;4.70;1.30;;;9.10;99.90;;;;;;6178240;23;20403;-74
2022/11/23 13:19:54;;;;;;;4.53;1.60;;;9.90;99.90;;;;;;6177518;23;20774;-82
2022/11/23 13:25:23;;;;;;;7.70;4.67;;;12.80;99.90;;;;;;6175880;23;20420;-75
2022/11/23 13:28:22;;;;;;;1.57;1.20;;;13.90;99.90;;;;;;6178912;23;20803;-74
2022/11/23 13:31:23;;;;;;;1.67;1.00;;;14.20;99.90;;;;;;6177934;23;20405;-72
2022/11/23 13:33:52;;;;;;;2.40;1.07;;;14.10;99.90;;;;;;6178851;23;20439;-72
2022/11/23 13:36:42;;;;;;;1.53;1.03;;;13.40;99.90;;;;;;6178339;23;20462;-73
2022/11/23 13:39:56;;;;;;;1.80;1.00;;;12.60;99.90;;;;;;6178704;23;20446;-73
2022/11/23 13:42:32;;;;;;;1.97;1.07;;;12.80;99.90;;;;;;6183216;23;20400;-73
2022/11/23 13:45:27;;;;;;;1.50;1.00;;;14.00;99.90;;;;;;6179221;23;20884;-73
2022/11/23 13:48:15;;;;;;;2.10;1.40;;;15.20;99.90;;;;;;6175779;23;20452;-75
2022/11/23 13:50:58;;;;;;;2.13;1.00;;;16.10;99.90;;;;;;6178723;23;20727;-73